createdAt,value
2018-11-26T00:00:36.371Z,37.23
2018-11-26T00:03:08.560Z,37.90
2018-11-26T00:05:38.315Z,39.63
2018-11-26T00:08:13.558Z,35.63
2018-11-26T00:10:53.867Z,36.73
2018-11-26T00:13:23.251Z,36.03
2018-11-26T00:15:52.260Z,33.93
2018-11-26T00:18:21.276Z,34.50
2018-11-26T00:20:50.308Z,35.30
2018-11-26T00:23:19.340Z,34.83
2018-11-26T00:25:48.436Z,35.20
2018-11-26T00:28:17.522Z,34.27
2018-11-26T00:30:46.540Z,32.13
2018-11-26T00:33:15.635Z,30.90
2018-11-26T00:35:44.695Z,31.07
2018-11-26T00:38:13.696Z,32.87
2018-11-26T00:40:42.948Z,33.33
2018-11-26T00:43:12.224Z,32.57
2018-11-26T00:45:41.285Z,32.60
2018-11-26T00:48:10.308Z,30.33
2018-11-26T00:50:39.352Z,32.33
2018-11-26T00:53:08.368Z,29.57
2018-11-26T00:55:37.426Z,31.17
2018-11-26T00:58:06.455Z,32.30
2018-11-26T01:00:35.496Z,34.03
2018-11-26T01:03:04.864Z,33.03
2018-11-26T01:05:38.225Z,33.73
2018-11-26T01:08:07.556Z,34.27
2018-11-26T01:10:36.632Z,34.97
2018-11-26T01:13:06.402Z,32.00
2018-11-26T01:15:35.482Z,35.07
2018-11-26T01:18:04.864Z,33.87
2018-11-26T01:20:33.950Z,35.37
2018-11-26T01:23:02.968Z,35.57
2018-11-26T01:25:32.035Z,32.07
2018-11-26T01:28:01.123Z,34.23
2018-11-26T01:30:30.292Z,32.43
2018-11-26T01:32:59.788Z,35.50
2018-11-26T01:35:28.828Z,36.17
2018-11-26T01:37:57.856Z,34.97
2018-11-26T01:40:32.702Z,32.57
2018-11-26T01:43:01.752Z,34.27
2018-11-26T01:45:30.797Z,34.27
2018-11-26T01:47:59.856Z,34.03
2018-11-26T01:50:28.860Z,32.60
2018-11-26T01:52:57.923Z,31.80
2018-11-26T01:55:26.967Z,30.20
2018-11-26T01:57:55.989Z,30.67
2018-11-26T02:00:26.478Z,30.13
2018-11-26T02:02:55.764Z,27.37
2018-11-26T02:05:24.762Z,28.40
2018-11-26T02:07:53.812Z,28.70
2018-11-26T02:10:23.064Z,29.83
2018-11-26T02:12:52.275Z,28.77
2018-11-26T02:15:35.413Z,28.63
2018-11-26T02:18:04.507Z,28.93
2018-11-26T02:20:33.549Z,28.57
2018-11-26T02:23:04.000Z,30.47
2018-11-26T02:25:33.011Z,30.20
2018-11-26T02:28:02.100Z,29.73
2018-11-26T02:30:31.220Z,29.97
2018-11-26T02:33:00.255Z,29.80
2018-11-26T02:35:29.322Z,29.87
2018-11-26T02:37:58.384Z,29.43
2018-11-26T02:40:28.540Z,27.30
2018-11-26T02:42:57.562Z,26.53
2018-11-26T02:45:27.773Z,26.67
2018-11-26T02:47:57.017Z,24.83
2018-11-26T02:50:26.081Z,24.70
2018-11-26T02:52:55.106Z,24.50
2018-11-26T02:55:24.190Z,23.67
2018-11-26T02:57:53.353Z,23.07
2018-11-26T03:00:22.478Z,24.27
2018-11-26T03:02:51.459Z,24.70
2018-11-26T03:05:26.309Z,24.47
2018-11-26T03:07:55.371Z,25.00
2018-11-26T03:10:24.455Z,25.43
2018-11-26T03:12:53.572Z,24.27
2018-11-26T03:15:22.607Z,25.30
2018-11-26T03:17:51.674Z,26.67
2018-11-26T03:20:20.708Z,26.57
2018-11-26T03:22:49.727Z,26.17
2018-11-26T03:25:18.779Z,27.13
2018-11-26T03:27:47.846Z,26.33
2018-11-26T03:30:19.085Z,27.03
2018-11-26T03:32:48.109Z,27.20
2018-11-26T03:35:17.641Z,25.53
2018-11-26T03:37:46.663Z,26.00
2018-11-26T03:40:15.962Z,25.80
2018-11-26T03:42:45.033Z,25.50
2018-11-26T03:45:15.149Z,25.67
2018-11-26T03:47:44.284Z,25.63
2018-11-26T03:50:14.157Z,23.60
2018-11-26T03:52:44.106Z,24.80
2018-11-26T03:55:13.691Z,24.03
2018-11-26T03:57:42.689Z,21.37
2018-11-26T04:00:13.986Z,23.17
2018-11-26T04:02:43.104Z,22.53
2018-11-26T04:05:12.721Z,22.73
2018-11-26T04:07:41.940Z,22.97
2018-11-26T04:10:12.992Z,24.33
2018-11-26T04:12:42.156Z,23.23
2018-11-26T04:15:15.235Z,22.37
2018-11-26T04:17:44.246Z,23.60
2018-11-26T04:20:13.273Z,24.90
2018-11-26T04:22:42.300Z,22.73
2018-11-26T04:25:11.321Z,22.70
2018-11-26T04:27:40.368Z,21.33
2018-11-26T04:30:11.004Z,21.43
2018-11-26T04:32:40.970Z,23.53
2018-11-26T04:35:10.344Z,19.53
2018-11-26T04:37:39.445Z,21.07
2018-11-26T04:40:09.711Z,20.50
2018-11-26T04:42:38.794Z,19.20
2018-11-26T04:45:09.240Z,19.13
2018-11-26T04:47:38.383Z,21.43
2018-11-26T04:50:09.310Z,20.27
2018-11-26T04:52:38.604Z,19.50
2018-11-26T04:55:08.861Z,19.07
2018-11-26T04:57:42.164Z,21.63
2018-11-26T05:00:12.795Z,20.70
2018-11-26T05:02:41.855Z,19.17
2018-11-26T05:05:11.980Z,20.40
2018-11-26T05:07:41.093Z,21.03
2018-11-26T05:10:12.270Z,20.63
2018-11-26T05:12:41.744Z,20.77
2018-11-26T05:15:11.909Z,19.90
2018-11-26T05:17:40.995Z,22.67
2018-11-26T05:20:12.263Z,22.63
2018-11-26T05:22:41.355Z,22.73
2018-11-26T05:25:11.056Z,23.57
2018-11-26T05:27:40.195Z,22.77
2018-11-26T05:30:11.363Z,20.87
2018-11-26T05:32:40.660Z,22.17
2018-11-26T05:35:10.882Z,22.03
2018-11-26T05:37:39.892Z,21.00
2018-11-26T05:40:14.971Z,21.50
2018-11-26T05:42:44.175Z,20.33
2018-11-26T05:45:15.006Z,20.87
2018-11-26T05:47:44.100Z,19.17
2018-11-26T05:50:14.460Z,20.20
2018-11-26T05:52:43.530Z,18.47
2018-11-26T05:55:13.849Z,20.27
2018-11-26T05:57:42.989Z,18.80
2018-11-26T06:00:23.252Z,19.73
2018-11-26T06:02:52.316Z,17.87
2018-11-26T06:05:21.371Z,17.60
2018-11-26T06:07:50.449Z,16.97
2018-11-26T06:10:19.516Z,16.93
2018-11-26T06:12:48.567Z,16.53
2018-11-26T06:15:17.643Z,17.37
2018-11-26T06:17:46.709Z,17.03
2018-11-26T06:20:15.770Z,16.87
2018-11-26T06:22:46.015Z,16.07
2018-11-26T06:25:16.494Z,16.90
2018-11-26T06:27:45.567Z,17.63
2018-11-26T06:30:15.791Z,16.03
2018-11-26T06:32:44.984Z,16.60
2018-11-26T06:35:16.113Z,16.40
2018-11-26T06:37:45.210Z,17.97
2018-11-26T06:40:14.767Z,17.03
2018-11-26T06:42:43.828Z,17.90
2018-11-26T06:45:15.017Z,17.50
2018-11-26T06:47:44.103Z,16.73
2018-11-26T06:50:16.001Z,18.00
2018-11-26T06:52:45.430Z,18.80
2018-11-26T06:55:15.823Z,18.47
2018-11-26T06:57:44.863Z,19.60
2018-11-26T07:00:17.191Z,20.03
2018-11-26T07:02:46.577Z,20.63
2018-11-26T07:05:20.897Z,19.80
2018-11-26T07:07:49.984Z,18.27
2018-11-26T07:10:19.957Z,19.20
2018-11-26T07:12:49.034Z,19.40
2018-11-26T07:15:19.821Z,19.73
2018-11-26T07:17:48.898Z,18.20
2018-11-26T07:20:18.796Z,21.63
2018-11-26T07:22:47.878Z,21.63
2018-11-26T07:25:18.452Z,20.70
2018-11-26T07:27:48.842Z,19.83
2018-11-26T07:30:19.232Z,20.43
2018-11-26T07:32:48.254Z,20.33
2018-11-26T07:35:17.838Z,21.77
2018-11-26T07:37:46.933Z,20.63
2018-11-26T07:40:21.959Z,21.30
2018-11-26T07:42:58.113Z,20.23
2018-11-26T07:45:29.290Z,19.57
2018-11-26T07:47:58.495Z,19.37
2018-11-26T07:50:27.532Z,20.90
2018-11-26T07:52:56.604Z,21.13
2018-11-26T07:55:25.686Z,20.80
2018-11-26T07:57:54.851Z,20.20
2018-11-26T08:00:23.960Z,19.10
2018-11-26T08:02:53.084Z,17.90
2018-11-26T08:05:23.171Z,18.73
2018-11-26T08:07:52.293Z,18.73
2018-11-26T08:10:23.733Z,16.67
2018-11-26T08:12:53.725Z,16.27
2018-11-26T08:15:24.765Z,16.20
2018-11-26T08:17:53.923Z,15.23
2018-11-26T08:20:23.032Z,15.67
2018-11-26T08:22:52.102Z,16.00
2018-11-26T08:25:23.092Z,15.30
2018-11-26T08:27:52.532Z,16.23
2018-11-26T08:30:23.859Z,15.70
2018-11-26T08:32:55.100Z,15.00
2018-11-26T08:35:24.173Z,13.97
2018-11-26T08:37:58.557Z,14.90
2018-11-26T08:40:29.978Z,15.53
2018-11-26T08:43:12.186Z,15.13
2018-11-26T08:45:47.501Z,13.10
2018-11-26T08:48:21.988Z,14.17
2018-11-26T08:50:51.110Z,14.57
2018-11-26T08:53:20.181Z,14.27
2018-11-26T08:55:49.218Z,13.73
2018-11-26T08:58:18.268Z,14.50
2018-11-26T09:00:47.562Z,14.70
2018-11-26T09:03:20.843Z,13.97
2018-11-26T09:06:00.523Z,14.43
2018-11-26T09:08:30.825Z,14.57
2018-11-26T09:11:00.681Z,14.77
2018-11-26T09:13:29.771Z,14.70
2018-11-26T09:15:59.004Z,14.97
2018-11-26T09:18:28.288Z,15.23
2018-11-26T09:20:57.295Z,14.40
2018-11-26T09:23:26.357Z,14.87
2018-11-26T09:25:55.894Z,14.97
2018-11-26T09:28:25.141Z,15.40
2018-11-26T09:30:54.189Z,15.20
2018-11-26T09:33:23.205Z,14.30
2018-11-26T09:35:52.353Z,15.43
2018-11-26T09:38:21.386Z,15.23
2018-11-26T09:40:50.464Z,16.43
2018-11-26T09:43:19.520Z,14.90
2018-11-26T09:45:48.521Z,14.97
2018-11-26T09:48:17.625Z,15.20
2018-11-26T09:50:46.706Z,14.47
2018-11-26T09:53:15.837Z,13.83
2018-11-26T09:55:44.909Z,14.10
2018-11-26T09:58:13.938Z,13.97
2018-11-26T10:00:43.022Z,13.67
2018-11-26T10:03:12.346Z,13.97
2018-11-26T10:05:41.405Z,13.87
2018-11-26T10:08:10.482Z,13.63
2018-11-26T10:10:39.563Z,12.03
2018-11-26T10:13:08.617Z,13.43
2018-11-26T10:15:37.627Z,12.57
2018-11-26T10:18:06.660Z,12.30
2018-11-26T10:20:35.921Z,12.17
2018-11-26T10:23:05.797Z,13.17
2018-11-26T10:25:34.800Z,11.97
2018-11-26T10:28:03.871Z,12.27
2018-11-26T10:30:32.968Z,12.90
2018-11-26T10:33:02.401Z,13.43
2018-11-26T10:35:31.618Z,13.07
2018-11-26T10:38:00.685Z,13.03
2018-11-26T10:40:29.773Z,12.40
2018-11-26T10:42:58.829Z,12.50
2018-11-26T10:45:27.982Z,13.87
2018-11-26T10:47:57.038Z,13.37
2018-11-26T10:50:26.873Z,13.40
2018-11-26T10:52:59.612Z,13.43
2018-11-26T10:55:33.176Z,12.60
2018-11-26T10:58:02.561Z,12.27
2018-11-26T11:00:37.112Z,12.03
2018-11-26T11:03:06.413Z,12.63
2018-11-26T11:05:36.486Z,12.03
2018-11-26T11:08:06.772Z,12.50
2018-11-26T11:10:36.021Z,12.20
2018-11-26T11:13:05.653Z,12.53
2018-11-26T11:15:35.146Z,12.50
2018-11-26T11:18:04.294Z,13.03
2018-11-26T11:20:33.493Z,12.20
2018-11-26T11:23:02.565Z,12.40
2018-11-26T11:25:31.711Z,11.73
2018-11-26T11:28:00.812Z,13.17
2018-11-26T11:30:30.799Z,12.20
2018-11-26T11:35:29.030Z,12.27
2018-11-26T11:37:58.046Z,13.07
2018-11-26T11:40:31.052Z,13.43
2018-11-26T11:43:00.999Z,13.50
2018-11-26T11:45:31.569Z,12.20
2018-11-26T11:48:00.756Z,12.93
2018-11-26T11:50:29.857Z,12.67
2018-11-26T11:52:59.259Z,13.90
2018-11-26T11:55:28.354Z,13.33
2018-11-26T11:57:57.665Z,13.53
2018-11-26T12:00:46.401Z,13.70
2018-11-26T12:03:17.481Z,14.10
2018-11-26T12:05:49.183Z,13.50
2018-11-26T12:08:18.836Z,12.80
2018-11-26T12:10:47.854Z,12.60
2018-11-26T12:13:16.968Z,13.27
2018-11-26T12:15:48.751Z,12.63
2018-11-26T12:18:17.871Z,12.87
2018-11-26T12:20:47.157Z,12.73
2018-11-26T12:23:16.207Z,12.53
2018-11-26T12:25:45.283Z,13.57
2018-11-26T12:28:14.331Z,12.40
2018-11-26T12:30:48.227Z,12.47
2018-11-26T12:33:17.252Z,12.37
2018-11-26T12:35:46.350Z,13.47
2018-11-26T12:38:15.476Z,13.53
2018-11-26T12:40:45.075Z,12.53
2018-11-26T12:43:14.180Z,12.27
2018-11-26T12:45:43.228Z,12.80
2018-11-26T12:48:12.221Z,12.20
2018-11-26T12:50:41.501Z,12.50
2018-11-26T12:53:10.932Z,11.80
2018-11-26T12:55:40.053Z,13.17
2018-11-26T12:58:09.442Z,13.40
2018-11-26T13:00:38.700Z,13.13
2018-11-26T13:03:09.514Z,13.17
2018-11-26T13:05:38.538Z,12.90
2018-11-26T13:08:08.408Z,12.30
2018-11-26T13:10:38.144Z,12.97
2018-11-26T13:13:08.558Z,13.47
2018-11-26T13:15:37.598Z,12.50
2018-11-26T13:18:07.119Z,11.50
2018-11-26T13:20:36.465Z,12.63
2018-11-26T13:23:06.899Z,12.63
2018-11-26T13:25:41.645Z,13.40
2018-11-26T13:28:07.488Z,12.53
2018-11-26T13:30:39.971Z,13.77
2018-11-26T13:33:10.701Z,12.80
2018-11-26T13:35:39.898Z,13.17
2018-11-26T13:38:09.391Z,12.73
2018-11-26T13:40:38.435Z,12.63
2018-11-26T13:43:09.741Z,13.03
2018-11-26T13:45:42.145Z,12.40
2018-11-26T13:48:12.662Z,12.90
2018-11-26T13:50:48.589Z,11.50
2018-11-26T13:53:17.606Z,12.10
2018-11-26T13:55:46.683Z,11.93
2018-11-26T13:58:15.750Z,12.33
2018-11-26T14:00:44.827Z,12.37
2018-11-26T14:03:13.878Z,12.03
2018-11-26T14:05:43.032Z,11.83
2018-11-26T14:08:12.227Z,12.17
2018-11-26T14:10:41.381Z,12.27
2018-11-26T14:13:14.786Z,12.43
2018-11-26T14:15:43.912Z,12.13
2018-11-26T14:18:12.961Z,11.50
2018-11-26T14:20:42.369Z,11.73
2018-11-26T14:23:11.778Z,11.57
2018-11-26T14:25:40.913Z,11.70
2018-11-26T14:28:10.010Z,12.27
2018-11-26T14:30:39.081Z,11.23
2018-11-26T14:33:08.119Z,10.70
2018-11-26T14:35:37.192Z,10.10
2018-11-26T14:38:08.110Z,10.57
2018-11-26T14:40:40.870Z,10.10
2018-11-26T14:43:09.883Z,10.13
2018-11-26T14:45:38.951Z,10.70
2018-11-26T14:48:08.069Z,10.10
2018-11-26T14:50:37.201Z,11.57
2018-11-26T14:53:08.011Z,10.27
2018-11-26T14:55:38.119Z,10.90
2018-11-26T14:58:07.523Z,10.73
2018-11-26T15:00:36.651Z,10.70
2018-11-26T15:03:06.249Z,10.70
2018-11-26T15:05:35.450Z,11.47
2018-11-26T15:08:04.494Z,10.83
2018-11-26T15:10:33.572Z,10.20
2018-11-26T15:13:02.733Z,10.93
2018-11-26T15:15:31.803Z,10.47
2018-11-26T15:18:00.894Z,10.70
2018-11-26T15:20:30.921Z,11.37
2018-11-26T15:23:00.708Z,10.67
2018-11-26T15:25:32.950Z,9.77
2018-11-26T15:28:07.134Z,9.90
2018-11-26T15:30:36.318Z,9.77
2018-11-26T15:33:05.712Z,10.37
2018-11-26T15:35:34.930Z,9.43
2018-11-26T15:38:04.335Z,10.80
2018-11-26T15:40:33.486Z,10.00
2018-11-26T15:43:02.570Z,10.30
2018-11-26T15:45:31.664Z,10.63
2018-11-26T15:48:02.217Z,11.30
2018-11-26T15:50:31.359Z,10.73
2018-11-26T15:53:00.705Z,10.93
2018-11-26T15:55:29.758Z,11.33
2018-11-26T15:57:58.859Z,10.87
2018-11-26T16:00:27.886Z,11.40
2018-11-26T16:02:56.934Z,12.57
2018-11-26T16:05:27.162Z,12.73
2018-11-26T16:07:57.763Z,12.57
2018-11-26T16:10:26.786Z,12.27
2018-11-26T16:12:57.171Z,11.50
2018-11-26T16:15:35.967Z,12.70
2018-11-26T16:18:07.841Z,12.87
2018-11-26T16:20:36.868Z,12.97
2018-11-26T16:23:07.722Z,13.10
2018-11-26T16:25:37.638Z,13.73
2018-11-26T16:28:06.878Z,13.83
2018-11-26T16:30:36.010Z,13.07
2018-11-26T16:33:05.667Z,13.47
2018-11-26T16:35:34.826Z,13.80
2018-11-26T16:38:04.009Z,13.77
2018-11-26T16:40:33.053Z,14.93
2018-11-26T16:43:02.097Z,13.67
2018-11-26T16:45:31.128Z,13.53
2018-11-26T16:48:00.190Z,15.37
2018-11-26T16:50:30.516Z,15.20
2018-11-26T16:52:59.579Z,14.27
2018-11-26T16:55:28.645Z,14.53
2018-11-26T16:57:57.695Z,14.50
2018-11-26T17:00:28.165Z,15.20
2018-11-26T17:02:59.541Z,15.47
2018-11-26T17:05:33.006Z,14.20
2018-11-26T17:08:02.073Z,14.47
2018-11-26T17:10:31.142Z,13.57
2018-11-26T17:13:00.779Z,14.30
2018-11-26T17:15:29.895Z,14.10
2018-11-26T17:17:58.924Z,14.97
2018-11-26T17:20:28.093Z,14.73
2018-11-26T17:22:57.129Z,14.93
2018-11-26T17:25:26.173Z,14.83
2018-11-26T17:27:55.234Z,15.23
2018-11-26T17:30:25.919Z,14.63
2018-11-26T17:33:00.301Z,15.23
2018-11-26T17:35:30.849Z,15.10
2018-11-26T17:37:59.947Z,14.67
2018-11-26T17:40:29.052Z,14.20
2018-11-26T17:42:58.246Z,13.00
2018-11-26T17:45:27.468Z,12.27
2018-11-26T17:47:58.009Z,12.00
2018-11-26T17:50:30.684Z,11.33
2018-11-26T17:52:59.726Z,12.07
2018-11-26T17:55:28.797Z,11.43
2018-11-26T17:57:57.976Z,11.17
2018-11-26T18:00:28.823Z,10.20
2018-11-26T18:02:57.948Z,9.87
2018-11-26T18:05:28.999Z,10.13
2018-11-26T18:08:00.715Z,10.17
2018-11-26T18:10:29.753Z,10.23
2018-11-26T18:12:58.909Z,9.73
2018-11-26T18:15:27.959Z,9.77
2018-11-26T18:17:57.304Z,8.20
2018-11-26T18:20:26.439Z,8.90
2018-11-26T18:22:55.726Z,9.10
2018-11-26T18:25:25.329Z,9.97
2018-11-26T18:28:03.397Z,9.27
2018-11-26T18:30:35.529Z,11.60
2018-11-26T18:33:04.990Z,9.10
2018-11-26T18:35:34.124Z,9.10
2018-11-26T18:38:03.269Z,9.27
2018-11-26T18:40:32.351Z,9.63
2018-11-26T18:43:01.429Z,9.27
2018-11-26T18:45:30.588Z,9.47
2018-11-26T18:47:59.674Z,9.70
2018-11-26T18:50:28.930Z,9.53
2018-11-26T18:52:57.972Z,8.87
2018-11-26T18:55:27.007Z,10.70
2018-11-26T18:57:56.564Z,9.37
2018-11-26T19:00:29.179Z,9.57
2018-11-26T19:02:58.887Z,9.80
2018-11-26T19:05:27.876Z,8.87
2018-11-26T19:07:56.902Z,8.60
2018-11-26T19:10:30.730Z,8.63
2018-11-26T19:13:01.847Z,9.47
2018-11-26T19:15:32.988Z,9.23
2018-11-26T19:18:13.845Z,8.70
2018-11-26T19:20:43.282Z,8.60
2018-11-26T19:23:12.333Z,9.07
2018-11-26T19:25:41.416Z,8.80
2018-11-26T19:28:10.479Z,9.07
2018-11-26T19:30:39.557Z,9.67
2018-11-26T19:33:09.813Z,8.43
2018-11-26T19:35:38.950Z,9.30
2018-11-26T19:38:08.575Z,8.97
2018-11-26T19:40:39.188Z,9.17
2018-11-26T19:43:08.826Z,8.63
2018-11-26T19:45:38.310Z,9.27
2018-11-26T19:48:08.412Z,9.30
2018-11-26T19:50:37.781Z,9.00
2018-11-26T19:53:10.933Z,8.77
2018-11-26T19:55:41.145Z,8.27
2018-11-26T19:58:10.542Z,9.53
2018-11-26T20:00:40.025Z,8.97
2018-11-26T20:03:19.413Z,9.43
2018-11-26T20:05:53.706Z,9.60
2018-11-26T20:08:22.776Z,9.27
2018-11-26T20:10:51.887Z,8.87
2018-11-26T20:13:20.943Z,9.47
2018-11-26T20:15:50.475Z,8.80
2018-11-26T20:18:19.530Z,9.57
2018-11-26T20:20:48.615Z,10.50
2018-11-26T20:23:17.645Z,10.83
2018-11-26T20:25:46.940Z,10.53
2018-11-26T20:28:15.957Z,9.73
2018-11-26T20:30:45.066Z,10.03
2018-11-26T20:33:14.437Z,9.70
2018-11-26T20:35:43.595Z,10.27
2018-11-26T20:38:13.893Z,10.03
2018-11-26T20:40:43.001Z,10.03
2018-11-26T20:43:13.159Z,9.43
2018-11-26T20:45:43.723Z,9.73
2018-11-26T20:48:12.775Z,9.37
2018-11-26T20:50:43.992Z,8.83
2018-11-26T20:53:13.042Z,9.60
2018-11-26T20:55:42.124Z,9.93
2018-11-26T20:58:11.158Z,9.57
2018-11-26T21:00:41.231Z,9.03
2018-11-26T21:03:11.096Z,8.63
2018-11-26T21:05:41.223Z,8.93
2018-11-26T21:08:10.288Z,9.27
2018-11-26T21:10:39.552Z,8.90
2018-11-26T21:13:09.114Z,9.00
2018-11-26T21:15:38.139Z,9.07
2018-11-26T21:18:08.964Z,8.30
2018-11-26T21:20:40.729Z,8.90
2018-11-26T21:23:11.501Z,8.27
2018-11-26T21:25:40.918Z,8.80
2018-11-26T21:28:09.960Z,9.17
2018-11-26T21:30:39.014Z,9.30
2018-11-26T21:33:08.054Z,9.70
2018-11-26T21:35:37.137Z,9.57
2018-11-26T21:38:07.691Z,10.50
2018-11-26T21:40:36.962Z,8.90
2018-11-26T21:43:06.463Z,10.70
2018-11-26T21:45:41.292Z,9.67
2018-11-26T21:48:10.430Z,9.87
2018-11-26T21:50:39.442Z,10.67
2018-11-26T21:53:08.764Z,9.50
2018-11-26T21:55:37.854Z,10.20
2018-11-26T21:58:07.330Z,11.40
2018-11-26T22:00:37.373Z,10.73
2018-11-26T22:03:09.995Z,10.90
2018-11-26T22:05:40.152Z,11.03
2018-11-26T22:08:09.990Z,12.43
2018-11-26T22:10:41.186Z,12.03
2018-11-26T22:13:11.620Z,12.47
2018-11-26T22:15:41.025Z,13.30
2018-11-26T22:18:10.302Z,13.33
2018-11-26T22:20:39.392Z,14.47
2018-11-26T22:23:09.210Z,13.50
2018-11-26T22:25:38.254Z,12.93
2018-11-26T22:28:09.101Z,11.73
2018-11-26T22:30:39.046Z,11.57
2018-11-26T22:33:09.082Z,11.53
2018-11-26T22:35:37.265Z,12.37
2018-11-26T22:38:06.720Z,11.57
2018-11-26T22:40:35.785Z,12.57
2018-11-26T22:43:05.136Z,11.37
2018-11-26T22:45:34.882Z,11.87
2018-11-26T22:48:12.604Z,12.80
2018-11-26T22:50:42.863Z,13.07
2018-11-26T22:53:12.261Z,12.17
2018-11-26T22:55:41.527Z,12.70
2018-11-26T22:58:12.797Z,13.20
2018-11-26T23:00:45.527Z,12.80
2018-11-26T23:03:16.121Z,13.13
2018-11-26T23:05:45.201Z,14.07
2018-11-26T23:08:14.378Z,13.53
2018-11-26T23:10:43.479Z,15.90
2018-11-26T23:13:12.723Z,16.63
2018-11-26T23:15:41.839Z,16.97
2018-11-26T23:18:10.901Z,18.17
2018-11-26T23:20:39.995Z,19.03
2018-11-26T23:23:09.089Z,18.50
2018-11-26T23:25:38.233Z,18.47
2018-11-26T23:28:07.283Z,18.10
2018-11-26T23:30:36.386Z,19.70
2018-11-26T23:33:06.757Z,19.83
2018-11-26T23:35:35.933Z,20.17
2018-11-26T23:38:05.496Z,20.70
2018-11-26T23:40:35.177Z,21.13
2018-11-26T23:43:05.167Z,21.33
2018-11-26T23:45:34.220Z,21.33
2018-11-26T23:48:03.344Z,22.47
2018-11-26T23:50:32.811Z,22.23
2018-11-26T23:53:01.833Z,23.03
2018-11-26T23:55:31.262Z,24.10
2018-11-26T23:58:00.346Z,24.63
